Time;durP1;ratioP1;P1;durP2;ratioP2;P2;SDS_P1;SDS_P2;PMS_P1;PMS_P2;Temp;Humidity;BMP_temperature;BMP_pressure;BME280_temperature;BME280_humidity;BME280_pressure;Samples;Min_cycle;Max_cycle;Signal;HPM_P1;HPM_P2
2022/04/04 00:00:43;;;;;;;4.82;3.38;;;-0.30;82.90;;;;;;5126335;28;20057;-82
2022/04/04 00:03:09;;;;;;;4.93;3.63;;;-0.30;83.20;;;;;;5127368;28;20035;-82
2022/04/04 00:05:35;;;;;;;5.90;3.40;;;-0.30;83.50;;;;;;5109317;28;20028;-80
2022/04/04 00:08:01;;;;;;;4.93;3.10;;;-0.30;83.70;;;;;;5124008;28;20054;-81
2022/04/04 00:10:27;;;;;;;4.80;3.10;;;-0.30;84.00;;;;;;5123430;28;20020;-81
2022/04/04 00:12:53;;;;;;;6.63;3.70;;;-0.30;83.80;;;;;;5123758;28;20016;-82
2022/04/04 00:15:18;;;;;;;5.90;3.50;;;-0.30;83.70;;;;;;5124471;28;20063;-82
2022/04/04 00:17:47;;;;;;;5.07;3.30;;;-0.30;83.70;;;;;;5123099;28;20016;-81
2022/04/04 00:20:13;;;;;;;4.95;3.10;;;-0.30;84.00;;;;;;5122317;28;20034;-82
2022/04/04 00:22:40;;;;;;;4.45;3.15;;;-0.30;84.10;;;;;;5122512;28;20102;-81
2022/04/04 00:25:06;;;;;;;6.07;3.40;;;-0.40;84.10;;;;;;5124840;28;20035;-82
2022/04/04 00:27:31;;;;;;;6.65;3.72;;;-0.40;84.30;;;;;;5129648;28;20087;-82
2022/04/04 00:29:57;;;;;;;6.85;3.42;;;-0.40;84.40;;;;;;5128944;27;20027;-82
2022/04/04 00:32:23;;;;;;;4.40;3.28;;;-0.40;84.70;;;;;;5126803;28;20164;-82
2022/04/04 00:34:48;;;;;;;5.53;3.65;;;-0.40;85.00;;;;;;5127111;28;20041;-82
2022/04/04 00:37:14;;;;;;;4.32;3.13;;;-0.40;85.10;;;;;;5111301;28;20023;-81
2022/04/04 00:39:40;;;;;;;3.90;2.95;;;-0.40;86.00;;;;;;5132723;28;20513;-81
2022/04/04 00:42:06;;;;;;;4.07;2.83;;;-0.50;85.50;;;;;;5131860;28;20028;-82
2022/04/04 00:44:33;;;;;;;4.35;2.53;;;-0.50;85.80;;;;;;5124766;28;20114;-82
2022/04/04 00:46:59;;;;;;;5.43;3.15;;;-0.40;86.30;;;;;;5087112;28;20028;-82
2022/04/04 00:49:25;;;;;;;4.90;2.63;;;-0.50;86.60;;;;;;5123050;28;20030;-82
2022/04/04 00:51:51;;;;;;;4.85;3.55;;;-0.50;87.00;;;;;;5106077;28;20022;-82
2022/04/04 00:54:17;;;;;;;4.15;2.85;;;-0.50;87.40;;;;;;5107581;28;20078;-82
2022/04/04 00:56:43;;;;;;;4.65;3.20;;;-0.60;87.80;;;;;;5123036;28;20024;-80
2022/04/04 00:59:13;;;;;;;5.95;3.88;;;-0.60;88.30;;;;;;5124574;28;20042;-80
2022/04/04 01:01:40;;;;;;;5.18;3.10;;;-0.60;88.90;;;;;;5123526;28;20020;-82
2022/04/04 01:04:08;;;;;;;5.20;3.47;;;-0.60;89.50;;;;;;5121480;28;20035;-81
2022/04/04 01:06:35;;;;;;;4.50;3.22;;;-0.60;90.00;;;;;;5124425;28;20055;-80
2022/04/04 01:09:02;;;;;;;4.85;3.10;;;-0.60;90.10;;;;;;5122308;28;20028;-81
2022/04/04 01:11:29;;;;;;;5.45;3.60;;;-0.60;90.20;;;;;;5120512;28;20027;-81
2022/04/04 01:13:54;;;;;;;5.60;3.30;;;-0.70;90.10;;;;;;5120872;28;20119;-81
2022/04/04 01:16:20;;;;;;;8.52;4.25;;;-0.70;90.10;;;;;;5120807;28;20043;-81
2022/04/04 01:18:46;;;;;;;4.43;3.03;;;-0.60;89.80;;;;;;5119016;28;20031;-80
2022/04/04 01:21:12;;;;;;;4.15;3.13;;;-0.70;89.50;;;;;;5119478;28;20125;-80
2022/04/04 01:23:42;;;;;;;4.80;3.15;;;-0.70;89.40;;;;;;5102034;28;20042;-80
2022/04/04 01:26:10;;;;;;;5.55;3.42;;;-0.70;89.00;;;;;;5120351;28;20053;-81
2022/04/04 01:28:37;;;;;;;4.63;2.92;;;-0.80;88.80;;;;;;5100341;28;20031;-81
2022/04/04 01:31:04;;;;;;;4.38;3.47;;;-0.80;88.50;;;;;;5119360;28;20084;-81
2022/04/04 01:33:30;;;;;;;4.57;2.97;;;-0.80;88.00;;;;;;5120186;28;20357;-80
2022/04/04 01:35:59;;;;;;;5.53;3.08;;;-0.80;87.60;;;;;;5119729;28;20028;-80
2022/04/04 01:38:26;;;;;;;6.95;3.75;;;-0.80;87.30;;;;;;5123662;28;20027;-80
2022/04/04 01:40:52;;;;;;;5.90;3.00;;;-0.80;86.40;;;;;;5121151;27;20008;-80
2022/04/04 01:43:18;;;;;;;4.72;2.67;;;-0.90;85.60;;;;;;5138708;27;20976;-80
2022/04/04 01:48:35;;;;;;;4.65;2.70;;;-0.90;84.60;;;;;;5138036;27;20074;-79
2022/04/04 01:51:00;;;;;;;3.53;1.83;;;-0.90;84.50;;;;;;5120558;28;20110;-80
2022/04/04 01:53:26;;;;;;;4.28;2.97;;;-0.90;84.40;;;;;;5138815;27;20011;-79
2022/04/04 01:55:57;;;;;;;5.97;2.90;;;-0.90;84.30;;;;;;5137389;27;20012;-80
2022/04/04 01:58:23;;;;;;;6.10;2.88;;;-0.90;83.80;;;;;;5119930;28;20024;-80
2022/04/04 02:00:49;;;;;;;4.15;2.60;;;-1.00;82.00;;;;;;5117875;28;20039;-80
2022/04/04 02:03:15;;;;;;;4.47;2.88;;;-0.90;82.00;;;;;;5135899;27;20051;-81
2022/04/04 02:05:41;;;;;;;3.25;2.58;;;-1.00;81.60;;;;;;5114747;28;20036;-81
2022/04/04 02:08:06;;;;;;;3.50;2.22;;;-1.00;81.40;;;;;;5133108;28;20031;-81
2022/04/04 02:10:32;;;;;;;4.28;2.63;;;-1.00;81.50;;;;;;5134074;28;20024;-81
2022/04/04 02:12:58;;;;;;;3.22;2.88;;;-1.00;81.50;;;;;;5134813;27;20035;-81
2022/04/04 02:15:25;;;;;;;5.97;2.70;;;-0.90;81.00;;;;;;5125433;28;20095;-80
2022/04/04 02:17:51;;;;;;;3.85;2.58;;;-1.00;81.20;;;;;;5121550;28;20035;-81
2022/04/04 02:20:17;;;;;;;3.40;2.50;;;-1.00;81.40;;;;;;5120312;28;20405;-81
2022/04/04 02:22:43;;;;;;;4.43;2.55;;;-1.00;81.50;;;;;;5119970;28;20072;-81
2022/04/04 02:25:09;;;;;;;4.18;2.60;;;-1.00;81.50;;;;;;5120646;28;20085;-80
2022/04/04 02:27:35;;;;;;;2.35;1.80;;;-1.00;81.60;;;;;;5103077;28;20051;-81
2022/04/04 02:30:01;;;;;;;3.38;2.10;;;-1.00;81.80;;;;;;5124914;28;20015;-82
2022/04/04 02:32:26;;;;;;;2.20;1.75;;;-1.00;81.60;;;;;;5119214;28;20062;-80
2022/04/04 02:34:52;;;;;;;3.53;2.03;;;-1.10;81.40;;;;;;5119413;28;20043;-80
2022/04/04 02:37:18;;;;;;;3.80;2.30;;;-1.10;81.40;;;;;;5117940;28;20047;-80
2022/04/04 02:39:44;;;;;;;3.75;2.20;;;-1.00;81.40;;;;;;5118499;28;20087;-81
2022/04/04 02:42:10;;;;;;;3.55;2.28;;;-1.00;81.30;;;;;;5120798;28;20487;-81
2022/04/04 02:44:36;;;;;;;2.97;2.00;;;-1.10;81.20;;;;;;5101438;28;20064;-80
2022/04/04 02:47:02;;;;;;;4.15;2.33;;;-1.00;81.50;;;;;;5119547;28;20031;-80
2022/04/04 02:49:30;;;;;;;3.28;2.40;;;-1.10;81.80;;;;;;5118933;28;20036;-81
2022/04/04 02:51:57;;;;;;;4.10;2.30;;;-1.10;82.20;;;;;;5120589;28;20031;-80
2022/04/04 02:54:23;;;;;;;3.10;2.38;;;-1.10;82.60;;;;;;5101941;28;20042;-80
2022/04/04 02:56:50;;;;;;;3.53;2.15;;;-1.20;83.10;;;;;;5119960;28;20028;-80
2022/04/04 02:59:16;;;;;;;3.33;2.00;;;-1.20;83.70;;;;;;5120296;28;20121;-81
2022/04/04 03:01:48;;;;;;;3.75;2.20;;;-1.20;84.30;;;;;;5122386;28;20027;-81
2022/04/04 03:04:17;;;;;;;3.33;2.25;;;-1.20;84.80;;;;;;5121025;28;20038;-81
2022/04/04 03:06:44;;;;;;;3.53;2.47;;;-1.20;85.20;;;;;;5101152;28;20456;-81
2022/04/04 03:09:10;;;;;;;4.10;2.67;;;-1.20;85.60;;;;;;5107746;28;20108;-80
2022/04/04 03:11:36;;;;;;;5.32;2.13;;;-1.20;85.80;;;;;;5124171;28;20043;-81
2022/04/04 03:14:02;;;;;;;4.38;2.72;;;-1.30;86.00;;;;;;5105162;28;20353;-81
2022/04/04 03:16:27;;;;;;;5.13;2.80;;;-1.20;86.50;;;;;;5108953;28;20011;-81
2022/04/04 03:18:54;;;;;;;4.10;2.72;;;-1.30;86.70;;;;;;5115183;28;20043;-82
2022/04/04 03:21:23;;;;;;;2.85;2.38;;;-1.30;87.00;;;;;;5131605;28;20092;-81
2022/04/04 03:23:49;;;;;;;3.83;2.58;;;-1.30;87.30;;;;;;5132713;28;20024;-81
2022/04/04 03:26:15;;;;;;;7.80;2.63;;;-1.30;87.50;;;;;;5116666;28;20519;-81
2022/04/04 03:28:41;;;;;;;3.97;2.72;;;-1.30;88.00;;;;;;5134132;28;20043;-82
2022/04/04 03:31:08;;;;;;;3.08;2.22;;;-1.20;88.40;;;;;;5134235;28;20046;-81
2022/04/04 03:33:34;;;;;;;5.85;2.75;;;-1.20;88.70;;;;;;5134815;28;20032;-81
2022/04/04 03:36:00;;;;;;;3.50;2.45;;;-1.20;88.90;;;;;;5115401;28;20050;-81
2022/04/04 03:38:27;;;;;;;4.47;2.95;;;-1.20;88.80;;;;;;5134121;28;20024;-81
2022/04/04 03:40:53;;;;;;;3.13;1.95;;;-1.30;88.70;;;;;;5135791;28;20110;-82
2022/04/04 03:43:19;;;;;;;5.90;3.58;;;-1.30;89.00;;;;;;5114890;28;20304;-80
2022/04/04 03:45:46;;;;;;;4.50;3.10;;;-1.30;89.00;;;;;;5127501;28;20016;-81
2022/04/04 03:48:12;;;;;;;4.50;2.90;;;-1.30;89.20;;;;;;5138138;28;20011;-82
2022/04/04 03:50:38;;;;;;;5.03;2.90;;;-1.30;89.20;;;;;;5136812;28;20543;-82
2022/04/04 03:53:05;;;;;;;4.53;2.50;;;-1.20;89.40;;;;;;5137191;28;20024;-81
2022/04/04 03:55:35;;;;;;;5.80;3.17;;;-1.20;89.60;;;;;;5114849;28;20115;-82
2022/04/04 03:58:02;;;;;;;5.13;2.53;;;-1.30;89.90;;;;;;5134767;28;20028;-81
2022/04/04 04:00:28;;;;;;;4.72;3.10;;;-1.30;90.10;;;;;;5128971;28;20042;-81
2022/04/04 04:02:54;;;;;;;4.90;3.38;;;-1.30;90.60;;;;;;5128767;28;20114;-81
2022/04/04 04:05:20;;;;;;;4.55;3.28;;;-1.30;91.10;;;;;;5129250;28;20034;-81
2022/04/04 04:07:46;;;;;;;5.45;3.30;;;-1.30;91.40;;;;;;5128759;28;20024;-81
2022/04/04 04:10:12;;;;;;;4.93;3.63;;;-1.30;91.70;;;;;;5110920;28;20051;-82
2022/04/04 04:12:39;;;;;;;5.15;3.47;;;-1.30;92.00;;;;;;5128757;28;20179;-80
2022/04/04 04:15:09;;;;;;;6.32;4.28;;;-1.30;92.20;;;;;;5128025;28;20365;-82
2022/04/04 04:17:35;;;;;;;7.03;3.72;;;-1.30;92.50;;;;;;5108134;28;20081;-81
2022/04/04 04:20:20;;;;;;;6.55;3.35;;;-1.30;92.60;;;;;;5126092;28;20032;-80
2022/04/04 04:22:48;;;;;;;7.78;3.45;;;-1.30;92.60;;;;;;5125931;28;20034;-81
2022/04/04 04:25:16;;;;;;;5.80;4.03;;;-1.30;92.50;;;;;;5125457;28;20038;-81
2022/04/04 04:27:43;;;;;;;5.07;3.30;;;-1.30;92.40;;;;;;5124433;28;20023;-81
2022/04/04 04:30:10;;;;;;;5.82;3.85;;;-1.30;92.20;;;;;;5106913;28;20145;-81
2022/04/04 04:32:36;;;;;;;5.35;3.97;;;-1.30;92.30;;;;;;5125415;28;20102;-82
2022/04/04 04:35:02;;;;;;;5.07;3.47;;;-1.30;92.40;;;;;;5126864;28;20054;-81
2022/04/04 04:37:28;;;;;;;4.88;3.15;;;-1.30;92.60;;;;;;5108852;28;20062;-80
2022/04/04 04:39:54;;;;;;;5.35;4.22;;;-1.20;92.70;;;;;;5124779;28;20059;-80
2022/04/04 04:42:20;;;;;;;5.03;3.40;;;-1.20;92.50;;;;;;5122800;28;20032;-80
2022/04/04 04:44:46;;;;;;;5.68;3.67;;;-1.20;92.20;;;;;;5121962;28;20115;-82
2022/04/04 04:47:12;;;;;;;7.10;4.18;;;-1.20;91.90;;;;;;5102278;28;20023;-80
2022/04/04 04:49:37;;;;;;;5.00;3.22;;;-1.20;91.60;;;;;;5122016;28;20027;-81
2022/04/04 04:52:06;;;;;;;5.03;3.60;;;-1.20;91.30;;;;;;5120102;28;20035;-81
2022/04/04 04:54:31;;;;;;;5.22;3.33;;;-1.20;91.30;;;;;;5102322;28;20028;-80
2022/04/04 04:56:57;;;;;;;5.32;3.10;;;-1.20;91.10;;;;;;5103335;28;20091;-81
2022/04/04 04:59:24;;;;;;;5.60;3.40;;;-1.20;90.80;;;;;;5122497;28;20372;-81
2022/04/04 05:01:50;;;;;;;6.13;3.25;;;-1.20;90.10;;;;;;5122717;28;20095;-81
2022/04/04 05:04:16;;;;;;;6.47;2.83;;;-1.20;89.50;;;;;;5121566;28;20053;-82
2022/04/04 05:06:42;;;;;;;3.47;2.75;;;-1.20;88.70;;;;;;5123650;28;20095;-81
2022/04/04 05:09:07;;;;;;;6.57;2.90;;;-1.20;88.00;;;;;;5118757;28;20038;-82
2022/04/04 05:11:33;;;;;;;5.57;3.10;;;-1.10;87.70;;;;;;5104806;28;20032;-82
2022/04/04 05:13:59;;;;;;;5.38;2.58;;;-1.10;87.20;;;;;;5109897;28;20020;-83
2022/04/04 05:16:28;;;;;;;6.25;3.03;;;-1.10;86.30;;;;;;5128565;28;20028;-83
2022/04/04 05:18:57;;;;;;;5.57;2.50;;;-1.10;85.20;;;;;;5120021;28;20429;-81
2022/04/04 05:21:23;;;;;;;5.10;2.33;;;-1.00;84.50;;;;;;5119820;28;20041;-82
2022/04/04 05:23:49;;;;;;;3.42;2.40;;;-0.90;84.20;;;;;;5121238;28;20079;-82
2022/04/04 05:26:15;;;;;;;4.38;2.65;;;-0.80;84.10;;;;;;5119305;28;20028;-83
2022/04/04 05:28:40;;;;;;;3.95;2.53;;;-0.80;84.00;;;;;;5101076;28;20114;-82
2022/04/04 05:31:06;;;;;;;3.78;2.58;;;-0.80;83.80;;;;;;5119357;28;20028;-81
2022/04/04 05:33:32;;;;;;;4.82;3.13;;;-0.80;83.90;;;;;;5120410;28;20037;-81
2022/04/04 05:35:57;;;;;;;4.75;2.80;;;-0.80;84.00;;;;;;5124899;27;20043;-81
2022/04/04 05:38:23;;;;;;;4.22;2.97;;;-0.80;84.40;;;;;;5128939;28;20023;-83
2022/04/04 05:40:49;;;;;;;5.32;2.63;;;-0.70;83.70;;;;;;5119681;28;20038;-83
2022/04/04 05:43:14;;;;;;;4.78;2.95;;;-0.70;83.40;;;;;;5131829;28;20026;-82
2022/04/04 05:45:40;;;;;;;3.75;2.85;;;-0.70;83.20;;;;;;5137174;28;20035;-82
2022/04/04 05:48:07;;;;;;;3.00;2.70;;;-0.70;83.40;;;;;;5124950;28;20040;-85
2022/04/04 05:50:35;;;;;;;4.30;2.70;;;-0.60;83.60;;;;;;5120029;28;20019;-82
2022/04/04 05:53:00;;;;;;;3.40;2.45;;;-0.60;83.70;;;;;;5101630;28;20371;-83
2022/04/04 05:55:26;;;;;;;4.55;2.63;;;-0.50;83.70;;;;;;5121524;28;20024;-82
2022/04/04 05:57:52;;;;;;;5.85;3.00;;;-0.40;83.50;;;;;;5120011;28;20028;-83
2022/04/04 06:00:18;;;;;;;4.10;3.10;;;-0.30;83.10;;;;;;5122665;28;20077;-83
2022/04/04 06:02:46;;;;;;;5.95;3.20;;;-0.30;82.90;;;;;;5122096;28;20024;-83
2022/04/04 06:05:12;;;;;;;5.22;3.28;;;-0.20;82.70;;;;;;5101995;28;20027;-83
2022/04/04 06:07:39;;;;;;;4.47;3.20;;;-0.20;82.50;;;;;;5119074;28;20380;-80
2022/04/04 06:10:07;;;;;;;9.30;3.85;;;-0.20;82.30;;;;;;5103485;28;20023;-79
2022/04/04 06:12:34;;;;;;;5.22;3.45;;;-0.20;82.00;;;;;;5126256;28;20412;-80
2022/04/04 06:15:01;;;;;;;7.53;3.88;;;-0.10;82.00;;;;;;5127759;28;20047;-78
2022/04/04 06:17:27;;;;;;;9.70;3.92;;;-0.10;81.80;;;;;;5126931;28;20026;-80
2022/04/04 06:19:54;;;;;;;4.50;3.13;;;0.00;81.40;;;;;;5122369;28;20019;-79
2022/04/04 06:22:22;;;;;;;5.88;3.92;;;0.00;81.20;;;;;;5119342;28;20027;-79
2022/04/04 06:24:48;;;;;;;7.53;4.18;;;0.10;81.30;;;;;;5118853;28;20039;-81
2022/04/04 06:27:15;;;;;;;6.22;3.75;;;0.10;81.00;;;;;;5119445;28;20034;-79
2022/04/04 06:29:42;;;;;;;6.60;3.53;;;0.20;79.70;;;;;;5118400;28;20019;-79
2022/04/04 06:32:14;;;;;;;8.48;3.80;;;0.30;78.50;;;;;;5119796;28;20098;-84
2022/04/04 06:34:40;;;;;;;5.60;3.85;;;0.30;78.10;;;;;;5102540;28;20058;-82
2022/04/04 06:37:05;;;;;;;13.30;4.20;;;0.40;76.70;;;;;;5100946;28;20103;-83
2022/04/04 06:39:32;;;;;;;4.63;3.25;;;0.40;77.30;;;;;;5120761;28;20035;-82
2022/04/04 06:41:57;;;;;;;7.25;4.03;;;0.40;76.10;;;;;;5102005;28;20074;-83
2022/04/04 06:44:23;;;;;;;7.75;3.65;;;0.50;75.90;;;;;;5121297;28;20372;-83
2022/04/04 06:46:50;;;;;;;7.53;3.25;;;0.60;76.20;;;;;;5102838;28;20031;-83
2022/04/04 06:49:16;;;;;;;5.15;3.13;;;0.60;75.30;;;;;;5122574;28;20039;-81
2022/04/04 06:51:41;;;;;;;4.97;2.95;;;0.70;75.00;;;;;;5137394;27;20023;-82
2022/04/04 06:54:07;;;;;;;3.88;2.78;;;0.80;74.80;;;;;;5137205;27;20036;-82
2022/04/04 06:56:36;;;;;;;5.70;2.97;;;0.90;74.90;;;;;;5136838;27;20024;-83
2022/04/04 06:59:02;;;;;;;5.28;3.22;;;1.00;74.90;;;;;;5119560;28;20050;-83
2022/04/04 07:01:29;;;;;;;6.32;3.78;;;1.10;74.50;;;;;;5119466;27;20038;-82
2022/04/04 07:03:55;;;;;;;5.57;3.28;;;1.10;74.10;;;;;;5113009;28;20350;-83
2022/04/04 07:06:22;;;;;;;7.10;3.00;;;1.20;71.80;;;;;;5149313;22;20036;-85
2022/04/04 07:08:48;;;;;;;6.22;3.65;;;1.20;70.90;;;;;;5085481;28;20024;-83
2022/04/04 07:11:14;;;;;;;6.85;3.78;;;1.20;71.10;;;;;;5070915;28;20015;-86
2022/04/04 07:13:40;;;;;;;5.07;2.97;;;1.30;71.50;;;;;;5077286;28;20044;-86
2022/04/04 07:16:06;;;;;;;7.97;3.80;;;1.30;71.00;;;;;;5081460;28;20036;-84
2022/04/04 07:18:32;;;;;;;7.90;3.35;;;1.40;69.00;;;;;;5095950;28;20055;-83
2022/04/04 07:20:58;;;;;;;6.97;3.00;;;1.40;69.50;;;;;;5114416;28;20024;-84
2022/04/04 07:23:24;;;;;;;3.53;2.50;;;1.50;69.20;;;;;;5097171;28;20016;-84
2022/04/04 07:25:50;;;;;;;4.85;2.45;;;1.50;68.50;;;;;;5092946;28;20046;-84
2022/04/04 07:28:20;;;;;;;3.20;2.58;;;1.60;68.40;;;;;;5086196;28;20087;-83
2022/04/04 07:30:46;;;;;;;5.28;2.88;;;1.80;67.60;;;;;;5064933;28;20028;-82
2022/04/04 07:33:16;;;;;;;7.72;2.85;;;1.90;65.60;;;;;;5071139;28;20077;-84
2022/04/04 07:35:42;;;;;;;5.82;2.65;;;2.00;65.30;;;;;;5088572;28;20054;-85
2022/04/04 07:38:10;;;;;;;5.72;2.88;;;2.10;64.70;;;;;;5105966;28;20024;-83
2022/04/04 07:40:36;;;;;;;4.93;2.65;;;2.20;63.80;;;;;;5105114;28;20095;-85
2022/04/04 07:43:07;;;;;;;8.10;2.83;;;2.30;63.90;;;;;;5088752;28;20020;-85
2022/04/04 07:45:36;;;;;;;5.45;3.20;;;2.40;63.70;;;;;;5104965;28;20024;-85
2022/04/04 07:48:04;;;;;;;3.42;2.60;;;2.50;63.00;;;;;;5103594;28;20036;-84
2022/04/04 07:50:43;;;;;;;7.10;3.30;;;2.60;62.40;;;;;;5102777;28;20017;-84
2022/04/04 07:53:09;;;;;;;4.68;2.17;;;2.80;62.00;;;;;;5082545;28;20048;-83
2022/04/04 07:56:26;;;;;;;;;;;;;;;;;;;;;
2022/04/04 07:59:19;;;;;;;5.55;2.13;;;3.00;61.20;;;;;;5015593;28;20132;-85
2022/04/04 08:01:53;;;;;;;3.55;2.00;;;3.30;60.20;;;;;;5089009;28;20047;-85
2022/04/04 08:04:19;;;;;;;5.13;2.03;;;3.50;58.50;;;;;;5090356;28;20028;-85
2022/04/04 08:06:45;;;;;;;3.38;2.20;;;3.60;59.20;;;;;;5108139;28;20104;-84
2022/04/04 08:09:11;;;;;;;4.35;2.17;;;3.70;56.90;;;;;;5107812;28;20184;-84
2022/04/04 08:11:41;;;;;;;3.70;2.10;;;3.80;56.20;;;;;;5090911;28;20028;-84
2022/04/04 08:14:09;;;;;;;3.58;2.30;;;3.90;56.40;;;;;;5076873;28;20108;-84
2022/04/04 08:20:17;;;;;;;8.18;3.00;;;4.20;56.40;;;;;;5082534;28;20039;-85
2022/04/04 08:26:16;;;;;;;2.92;2.20;;;4.50;55.60;;;;;;5026007;28;20053;-84
2022/04/04 08:28:42;;;;;;;3.42;2.63;;;4.60;55.00;;;;;;5071800;28;20523;-85
2022/04/04 08:31:08;;;;;;;4.82;2.40;;;4.60;54.60;;;;;;5091948;28;20024;-84
2022/04/04 08:33:33;;;;;;;5.13;2.92;;;4.70;53.60;;;;;;5078732;28;20059;-85
2022/04/04 08:36:00;;;;;;;4.25;2.70;;;4.70;53.50;;;;;;5094573;28;20075;-86
2022/04/04 08:38:26;;;;;;;3.38;2.42;;;4.90;53.80;;;;;;5090676;28;20031;-85
2022/04/04 08:40:53;;;;;;;5.43;2.30;;;5.10;53.60;;;;;;5090410;28;20024;-85
2022/04/04 08:43:19;;;;;;;2.53;2.22;;;5.20;52.90;;;;;;5107972;28;20044;-85
2022/04/04 08:45:47;;;;;;;5.03;2.40;;;5.30;52.30;;;;;;5106309;28;20024;-84
2022/04/04 08:48:15;;;;;;;3.65;2.55;;;5.30;51.90;;;;;;5076842;28;20492;-83
2022/04/04 08:50:41;;;;;;;7.90;2.60;;;5.40;51.90;;;;;;5106777;28;20034;-84
2022/04/04 08:53:07;;;;;;;5.93;2.30;;;5.60;51.60;;;;;;5105226;28;20035;-85
2022/04/04 08:55:35;;;;;;;5.13;2.35;;;5.80;51.20;;;;;;5107735;28;20023;-84
2022/04/04 08:58:01;;;;;;;2.92;1.92;;;5.90;49.90;;;;;;5106628;28;20030;-85
2022/04/04 09:00:27;;;;;;;3.55;2.17;;;6.10;49.60;;;;;;5086299;28;20092;-84
2022/04/04 09:02:58;;;;;;;4.20;1.98;;;6.30;49.30;;;;;;5087816;28;20029;-85
2022/04/04 09:05:25;;;;;;;3.05;2.13;;;6.40;49.50;;;;;;5083894;28;20058;-86
2022/04/04 09:08:03;;;;;;;2.92;1.88;;;6.60;48.60;;;;;;5102741;28;20032;-84
2022/04/04 09:10:39;;;;;;;3.75;2.30;;;6.80;48.70;;;;;;5086360;28;20025;-86
2022/04/04 09:13:16;;;;;;;3.55;2.33;;;6.90;47.80;;;;;;5104400;28;20016;-86
2022/04/04 09:16:06;;;;;;;2.80;2.38;;;7.00;48.10;;;;;;5086481;28;20035;-85
2022/04/04 09:18:41;;;;;;;2.72;2.00;;;7.00;48.10;;;;;;5104784;28;20028;-82
2022/04/04 09:21:17;;;;;;;4.13;2.70;;;7.20;47.80;;;;;;5081879;28;20036;-83
2022/04/04 09:23:45;;;;;;;2.50;2.17;;;7.10;47.20;;;;;;5107252;28;20075;-83
2022/04/04 09:26:35;;;;;;;4.60;3.10;;;7.10;47.80;;;;;;5088955;28;20031;-83
2022/04/04 09:29:08;;;;;;;5.43;3.22;;;7.20;47.30;;;;;;5105516;28;20047;-83
2022/04/04 09:31:34;;;;;;;5.50;3.25;;;7.30;47.40;;;;;;5105380;28;20040;-84
2022/04/04 09:34:02;;;;;;;4.45;2.95;;;7.50;46.70;;;;;;5085472;28;20110;-82
2022/04/04 09:36:28;;;;;;;4.70;3.00;;;7.50;46.50;;;;;;5103195;28;20076;-82
2022/04/04 09:39:10;;;;;;;4.82;2.75;;;7.50;46.60;;;;;;5085205;28;20028;-83
2022/04/04 09:41:37;;;;;;;4.32;2.90;;;7.50;47.30;;;;;;5103456;28;20052;-84
2022/04/04 09:44:05;;;;;;;3.92;2.80;;;7.70;48.00;;;;;;5105079;28;20425;-83
2022/04/04 09:46:36;;;;;;;4.05;2.92;;;7.90;47.50;;;;;;5106098;28;20073;-83
2022/04/04 09:49:03;;;;;;;6.47;3.45;;;8.00;47.50;;;;;;5081353;28;20025;-82
2022/04/04 09:51:44;;;;;;;5.63;3.13;;;7.80;47.30;;;;;;5094074;28;20042;-83
2022/04/04 09:54:32;;;;;;;4.45;3.10;;;8.10;48.00;;;;;;5077728;28;20226;-82
2022/04/04 09:57:15;;;;;;;5.68;3.30;;;8.30;46.90;;;;;;5085128;28;20028;-82
2022/04/04 09:59:42;;;;;;;6.20;3.85;;;8.10;46.50;;;;;;5096320;28;20024;-83
2022/04/04 10:02:11;;;;;;;3.97;2.90;;;8.10;47.30;;;;;;5106510;28;20098;-83
2022/04/04 10:04:38;;;;;;;5.90;3.78;;;8.30;48.00;;;;;;5106207;28;20031;-83
2022/04/04 10:07:08;;;;;;;5.25;3.47;;;8.50;47.40;;;;;;5103529;28;20032;-82
2022/04/04 10:09:35;;;;;;;6.32;3.67;;;8.80;46.80;;;;;;5102879;28;20024;-83
2022/04/04 10:12:03;;;;;;;7.43;3.40;;;9.00;45.80;;;;;;5087701;28;20028;-81
2022/04/04 10:14:31;;;;;;;4.90;3.30;;;8.70;46.00;;;;;;5087623;28;20047;-82
2022/04/04 10:16:57;;;;;;;6.05;3.45;;;8.80;47.30;;;;;;5105386;28;20054;-82
2022/04/04 10:19:27;;;;;;;4.93;2.75;;;9.10;47.10;;;;;;5103167;28;20020;-83
2022/04/04 10:21:53;;;;;;;3.75;3.35;;;9.10;46.60;;;;;;5105471;28;20182;-82
2022/04/04 10:24:19;;;;;;;10.32;3.47;;;9.20;45.70;;;;;;5104429;28;20024;-83
2022/04/04 10:26:48;;;;;;;6.50;3.80;;;9.40;45.10;;;;;;5104861;28;20030;-82
2022/04/04 10:29:20;;;;;;;5.07;3.78;;;9.10;46.20;;;;;;5113919;28;20045;-81
2022/04/04 10:31:46;;;;;;;6.47;3.92;;;9.00;46.50;;;;;;5114816;28;20016;-80
2022/04/04 10:34:15;;;;;;;7.65;3.80;;;8.60;46.20;;;;;;5088762;28;20119;-83
2022/04/04 10:37:01;;;;;;;6.07;4.15;;;8.40;47.50;;;;;;5073403;28;20035;-83
2022/04/04 10:39:35;;;;;;;6.78;4.30;;;8.70;48.10;;;;;;5078071;28;20039;-85
2022/04/04 10:42:22;;;;;;;6.35;3.88;;;9.00;47.20;;;;;;5086631;28;20399;-83
2022/04/04 10:44:49;;;;;;;7.75;4.40;;;9.40;47.20;;;;;;5088205;28;20033;-82
2022/04/04 10:47:22;;;;;;;7.35;4.50;;;9.70;46.10;;;;;;5077688;28;20037;-82
2022/04/04 10:49:49;;;;;;;4.45;3.75;;;9.70;45.50;;;;;;5108835;28;20456;-82
2022/04/04 10:52:18;;;;;;;9.30;4.97;;;9.60;46.20;;;;;;5107976;28;20024;-83
2022/04/04 10:54:44;;;;;;;7.80;4.28;;;9.70;45.40;;;;;;5112296;28;20019;-82
2022/04/04 10:57:18;;;;;;;5.68;4.47;;;9.70;45.70;;;;;;5113995;28;20032;-81
2022/04/04 10:59:48;;;;;;;7.43;4.63;;;9.80;45.80;;;;;;5107609;28;20011;-81
2022/04/04 11:02:20;;;;;;;6.38;5.22;;;9.80;46.00;;;;;;5086166;28;20481;-81
2022/04/04 11:07:38;;;;;;;5.82;4.53;;;9.80;46.10;;;;;;5104092;28;20275;-82
2022/04/04 11:10:06;;;;;;;8.30;5.32;;;9.70;46.50;;;;;;5069131;28;20054;-82
2022/04/04 11:13:03;;;;;;;7.80;5.10;;;10.00;46.90;;;;;;5072633;28;20440;-83
2022/04/04 11:15:53;;;;;;;6.55;4.68;;;10.30;45.70;;;;;;5095748;28;20065;-82
2022/04/04 11:18:32;;;;;;;6.00;5.30;;;10.50;45.60;;;;;;5108957;28;20042;-82
2022/04/04 11:21:02;;;;;;;6.50;4.85;;;10.30;44.90;;;;;;5115406;28;20013;-83
2022/04/04 11:23:34;;;;;;;6.28;5.00;;;10.00;45.10;;;;;;5082040;28;20123;-83
2022/04/04 11:26:01;;;;;;;9.98;5.68;;;10.00;45.40;;;;;;5102421;28;20062;-83
2022/04/04 11:28:32;;;;;;;7.30;4.68;;;10.00;45.30;;;;;;5110413;28;20020;-83
2022/04/04 11:31:10;;;;;;;6.85;5.22;;;9.70;46.10;;;;;;5111015;28;20083;-83
2022/04/04 11:33:51;;;;;;;8.27;4.68;;;9.60;45.90;;;;;;5106330;28;20032;-84
2022/04/04 11:36:32;;;;;;;5.45;4.75;;;9.60;45.80;;;;;;5106260;28;20046;-84
2022/04/04 11:39:03;;;;;;;8.70;4.72;;;9.70;46.10;;;;;;5105061;28;20427;-85
2022/04/04 11:41:36;;;;;;;7.93;5.43;;;9.70;44.80;;;;;;5103396;28;20082;-83
2022/04/04 11:44:02;;;;;;;;;;;9.30;45.70;;;;;;5104304;28;20231;-84
2022/04/04 11:46:28;;;;;;;8.00;5.07;;;9.10;46.50;;;;;;5106089;28;19929;-83
2022/04/04 11:48:59;;;;;;;6.78;4.50;;;9.20;46.90;;;;;;5082792;28;20088;-84
2022/04/04 11:51:37;;;;;;;6.22;4.85;;;9.30;46.50;;;;;;5083454;28;20464;-82
2022/04/04 11:54:04;;;;;;;6.10;4.63;;;9.20;46.40;;;;;;5106260;28;20031;-83
2022/04/04 11:56:31;;;;;;;11.48;5.78;;;9.30;47.20;;;;;;5081574;28;20031;-84
2022/04/04 11:58:57;;;;;;;8.40;4.53;;;9.40;47.00;;;;;;5074677;28;20047;-86
2022/04/04 12:01:34;;;;;;;6.32;5.72;;;9.60;47.90;;;;;;5094236;28;20072;-85
2022/04/04 12:04:01;;;;;;;10.43;4.95;;;9.60;47.10;;;;;;5103291;28;20027;-87
2022/04/04 12:06:29;;;;;;;7.07;5.82;;;9.60;47.50;;;;;;5102679;28;20035;-84
2022/04/04 12:08:57;;;;;;;6.63;5.13;;;9.50;47.40;;;;;;5104131;28;20141;-85
2022/04/04 12:11:29;;;;;;;6.13;4.53;;;9.60;47.60;;;;;;5081282;28;20442;-85
2022/04/04 12:13:59;;;;;;;6.63;4.63;;;9.50;48.10;;;;;;5079912;28;20029;-86
2022/04/04 12:16:30;;;;;;;8.13;5.38;;;9.50;48.60;;;;;;5084284;28;20028;-86
2022/04/04 12:19:00;;;;;;;6.00;4.88;;;9.70;49.00;;;;;;5100228;28;20046;-86
2022/04/04 12:21:26;;;;;;;7.00;4.75;;;9.90;47.70;;;;;;5082812;28;20029;-86
2022/04/04 12:26:38;;;;;;;7.28;5.03;;;9.90;48.00;;;;;;5103041;28;20097;-86
2022/04/04 12:29:14;;;;;;;7.30;5.30;;;9.70;48.00;;;;;;5080686;28;20040;-86
2022/04/04 12:31:56;;;;;;;6.93;5.43;;;9.90;48.10;;;;;;5099123;28;20031;-85
2022/04/04 12:34:24;;;;;;;8.10;5.47;;;9.70;47.70;;;;;;5100962;28;20044;-85
2022/04/04 12:36:50;;;;;;;8.05;6.05;;;9.90;48.50;;;;;;5102596;28;20028;-84
2022/04/04 12:39:18;;;;;;;7.90;5.68;;;9.90;48.50;;;;;;5076114;28;20021;-86
2022/04/04 12:41:53;;;;;;;9.27;5.47;;;10.00;48.00;;;;;;5085544;28;20024;-87
2022/04/04 12:44:25;;;;;;;6.95;5.72;;;10.20;48.00;;;;;;5069375;28;20028;-86
2022/04/04 12:47:03;;;;;;;6.40;5.47;;;10.40;48.10;;;;;;5097204;28;20104;-86
2022/04/04 12:49:30;;;;;;;9.75;6.40;;;10.60;47.90;;;;;;5094299;28;20289;-86
2022/04/04 12:51:58;;;;;;;6.18;5.10;;;10.60;47.80;;;;;;5089547;28;20507;-88
2022/04/04 12:54:28;;;;;;;6.72;5.95;;;10.60;48.90;;;;;;5086874;28;20055;-87
2022/04/04 12:56:55;;;;;;;8.40;6.28;;;10.70;48.50;;;;;;5103781;28;20024;-87
2022/04/04 12:59:24;;;;;;;7.57;6.15;;;10.40;48.60;;;;;;5085949;28;20077;-88
2022/04/04 13:02:11;;;;;;;7.32;5.53;;;10.30;48.90;;;;;;5103513;28;20064;-88
2022/04/04 13:04:38;;;;;;;10.02;6.40;;;10.70;49.40;;;;;;5086237;28;20515;-87
2022/04/04 13:07:04;;;;;;;10.02;6.57;;;10.90;47.80;;;;;;5107140;28;20044;-86
2022/04/04 13:09:32;;;;;;;9.88;6.30;;;10.30;48.60;;;;;;5086351;28;20484;-86
2022/04/04 13:11:58;;;;;;;10.63;6.40;;;10.10;50.30;;;;;;5089116;28;20024;-86
2022/04/04 13:14:25;;;;;;;8.95;5.97;;;10.10;50.30;;;;;;5104032;28;20028;-86